Stations météo

réclame
Mon MeteoGroup
Briancon, France (7593): Température de l'air & dewpoint: 14.09.2020 18:00:00 - 20.09.2020 18:00:00 (CEST)Briancon, France (7593): Vitesse du vent: 14.09.2020 18:00:00 - 20.09.2020 18:00:00 (CEST)Briancon, France (7593): Direction du vent: 14.09.2020 18:00:00 - 20.09.2020 18:00:00 (CEST)Briancon, France (7593): Quantités de précipitations: 14.09.2020 18:00:00 - 20.09.2020 18:00:00 (CEST)
Date & Time tt [°C] td [°C] ff [km/h] ff [knt] dd rr [mm]
20.09.2020 18:00:00 13,3 11,4 2 1 E 0,6
20.09.2020 17:00:00 13,2 11,6 7 4 N 1,6
20.09.2020 16:00:00 16,1 10,6 13 7 SW 0,0
20.09.2020 15:00:00 17,6 9,0 11 6 NNE 0,0
20.09.2020 14:00:00 17,7 8,8 13 7 NE 0,0
20.09.2020 13:00:00 17,8 9,4 11 6 N 0,0
20.09.2020 12:00:00 16,8 9,9 12 7 NNE 0,0
20.09.2020 11:00:00 15,2 10,8 5 3 S 0,0
20.09.2020 10:00:00 14,1 11,4 4 2 W 0,0
20.09.2020 09:00:00 12,6 10,5 2 1 SSE 0,0
20.09.2020 08:00:00 11,8 10,5 4 2 SSW 0,0
20.09.2020 07:00:00 11,5 10,2 2 1 NE 0,0
20.09.2020 06:00:00 11,2 9,8 4 2 NNE 0,0
20.09.2020 05:00:00 11,2 9,9 7 4 E 0,0
20.09.2020 04:00:00 11,4 10,3 2 1 W 0,0
20.09.2020 03:00:00 11,2 10,3 3 1 NE 0,0
20.09.2020 02:00:00 11,4 10,0 2 1 E 0,0
20.09.2020 01:00:00 11,2 9,9 3 2 E 0,0
20.09.2020 00:00:00 12,1 10,8 2 1 ENE 0,0
19.09.2020 23:00:00 11,8 10,2 3 2 E 0,0
19.09.2020 22:00:00 12,2 10,3 3 1 ESE 0,0
19.09.2020 21:00:00 13,7 9,1 13 7 E 0,0
19.09.2020 20:00:00 14,2 11,5 9 5 E 1,8
19.09.2020 19:00:00 17,1 10,5 16 9 NE 0,0
19.09.2020 18:00:00 17,3 11,3 16 9 NE 0,0
19.09.2020 17:00:00 17,7 13,8 3 2 ESE 0,4
19.09.2020 16:00:00 18,9 11,2 13 7 NNE 0,0
19.09.2020 15:00:00 21,0 11,1 4 2 SSW 0,0
19.09.2020 14:00:00 18,8 12,3 6 3 NE 0,6
19.09.2020 13:00:00 17,0 12,9 4 2 S 0,0
19.09.2020 12:00:00 17,8 11,8 4 2 S 0,0
19.09.2020 11:00:00 17,2 12,7 4 2 SSE 0,0
19.09.2020 10:00:00 14,0 13,4 2 1 WSW 0,0
19.09.2020 09:00:00 13,2 12,7 2 1 SSE 0,0
19.09.2020 08:00:00 13,1 12,6 0 0 N 1,0
19.09.2020 07:00:00 13,1 12,5 3 2 SE 1,8
19.09.2020 06:00:00 13,4 12,3 2 1 NE 1,4
19.09.2020 05:00:00 14,9 11,7 9 5 SW 0,0
19.09.2020 04:00:00 15,4 10,8 2 1 SW 0,0
19.09.2020 03:00:00 15,4 11,2 3 2 SE 0,0
19.09.2020 02:00:00 15,5 10,5 4 2 SSW 0,0
19.09.2020 01:00:00 15,3 10,1 4 2 SSE 0,0
19.09.2020 00:00:00 15,4 10,4 3 2 NE 0,0
18.09.2020 23:00:00 14,7 9,7 2 1 NNE 0,0
18.09.2020 22:00:00 15,1 9,5 3 2 ESE 0,0
18.09.2020 21:00:00 16,8 9,0 3 2 ESE 0,0
18.09.2020 20:00:00 17,9 9,0 4 2 NNE 0,0
18.09.2020 19:00:00 20,8 9,4 13 7 NE 0,0
18.09.2020 18:00:00 24,6 7,7 9 5 SW 0,0
18.09.2020 17:00:00 25,0 6,2 13 7 WSW 0,0
18.09.2020 16:00:00 24,7 7,3 19 11 WSW 0,0
18.09.2020 15:00:00 24,7 6,9 18 10 SW 0,0
18.09.2020 14:00:00 23,5 6,7 16 9 SW 0,0
18.09.2020 13:00:00 23,0 7,9 5 3 SW 0,0
18.09.2020 12:00:00 20,4 9,6 6 3 WSW 0,0
18.09.2020 11:00:00 18,3 8,3 3 1 SSW 0,0
18.09.2020 10:00:00 11,7 7,8 2 1 SE 0,0
18.09.2020 09:00:00 10,4 6,9 0 0 N 0,0
18.09.2020 08:00:00 9,5 5,5 4 2 NE 0,0
18.09.2020 07:00:00 9,3 5,3 2 1 ESE 0,0
18.09.2020 06:00:00 9,2 5,2 2 1 ESE 0,0
18.09.2020 05:00:00 10,0 5,6 0 0 N 0,0
18.09.2020 04:00:00 10,3 6,3 3 2 S 0,0
18.09.2020 03:00:00 11,1 6,6 2 1 SE 0,0
18.09.2020 02:00:00 11,6 7,1 2 1 E 0,0
18.09.2020 01:00:00 12,9 8,0 4 2 ESE 0,0
18.09.2020 00:00:00 14,0 8,2 3 1 S 0,0
17.09.2020 23:00:00 14,9 8,4 2 1 N 0,0
17.09.2020 22:00:00 16,4 9,1 9 5 ENE 0,0
17.09.2020 21:00:00 16,8 9,2 5 3 NE 0,0
17.09.2020 20:00:00 18,0 9,3 8 5 SW 0,0
17.09.2020 19:00:00 21,0 6,9 5 3 NW 0,0
17.09.2020 18:00:00 22,4 7,4 12 7 E 0,0
17.09.2020 17:00:00 23,2 6,9 8 4 ESE 0,0
17.09.2020 16:00:00 24,3 6,5 14 7 ENE 0,0
17.09.2020 15:00:00 24,5 6,3 15 8 NE 0,0
17.09.2020 14:00:00 25,9 7,0 4 2 SSW 0,0
17.09.2020 13:00:00 23,3 7,4 5 3 SSW 0,0
17.09.2020 12:00:00 21,5 9,1 5 3 SSW 0,0
17.09.2020 11:00:00 18,8 8,7 2 1 S 0,0
17.09.2020 10:00:00 11,8 7,9 3 1 SE 0,0
17.09.2020 09:00:00 9,9 6,8 2 1 E 0,0
17.09.2020 08:00:00 8,8 5,9 2 1 SSE 0,0
17.09.2020 07:00:00 9,1 5,6 4 2 E 0,0
17.09.2020 06:00:00 9,3 5,8 3 1 ENE 0,0
17.09.2020 05:00:00 9,7 6,0 2 1 E 0,0
17.09.2020 04:00:00 10,1 6,2 0 0 N 0,0
17.09.2020 03:00:00 10,4 6,9 3 1 WSW 0,0
17.09.2020 02:00:00 10,9 7,0 3 2 ESE 0,0
17.09.2020 01:00:00 11,1 7,2 2 1 E 0,0
17.09.2020 00:00:00 11,9 7,8 3 2 E 0,0
16.09.2020 23:00:00 13,3 9,2 0 0 N 0,0
16.09.2020 22:00:00 14,1 9,5 3 2 E 0,0
16.09.2020 21:00:00 14,4 9,8 6 4 ENE 0,0
16.09.2020 20:00:00 15,2 10,6 4 2 SE 0,0
16.09.2020 19:00:00 16,7 12,0 5 3 ENE 0,2
16.09.2020 18:00:00 21,5 8,7 6 3 ESE 0,0
16.09.2020 17:00:00 23,4 8,7 8 5 ESE 0,0
16.09.2020 16:00:00 26,6 5,5 17 9 WSW 0,0
16.09.2020 15:00:00 26,5 3,7 12 6 WSW 0,0
16.09.2020 14:00:00 25,6 2,3 5 3 SSE 0,0
16.09.2020 13:00:00 24,3 4,1 5 3 S 0,0
16.09.2020 12:00:00 22,0 8,1 3 2 S 0,0
16.09.2020 11:00:00 19,0 8,6 2 1 SE 0,0
16.09.2020 10:00:00 12,3 7,0 2 1 S 0,0
16.09.2020 09:00:00 10,4 5,8 0 0 N 0,0
16.09.2020 08:00:00 9,4 4,8 3 1 NE 0,0
16.09.2020 07:00:00 9,3 4,3 3 1 ESE 0,0
16.09.2020 06:00:00 9,9 5,1 3 2 SSE 0,0
16.09.2020 05:00:00 9,9 5,9 2 1 SSE 0,0
16.09.2020 04:00:00 10,6 6,7 0 0 N 0,0
16.09.2020 03:00:00 11,3 8,0 0 0 N 0,0
16.09.2020 02:00:00 12,0 8,1 0 0 N 0,0
16.09.2020 01:00:00 14,3 8,3 9 5 NE 0,0
16.09.2020 00:00:00 14,7 8,4 5 3 E 0,0
15.09.2020 23:00:00 16,7 8,9 6 3 E 0,0
15.09.2020 22:00:00 17,8 9,4 13 7 E 0,0
15.09.2020 21:00:00 18,3 8,0 7 4 E 0,0
15.09.2020 20:00:00 18,1 7,5 5 3 ENE 0,0
15.09.2020 19:00:00 22,2 6,4 5 3 S 0,0
15.09.2020 18:00:00 24,1 5,9 14 8 E 0,0
15.09.2020 17:00:00 25,1 5,8 10 5 E 0,0
15.09.2020 16:00:00 25,2 3,8 7 4 S 0,0
15.09.2020 15:00:00 24,9 2,9 7 4 NE 0,0
15.09.2020 14:00:00 24,5 5,3 6 4 WSW 0,0
15.09.2020 13:00:00 23,4 3,8 6 3 WNW 0,0
15.09.2020 12:00:00 21,7 7,5 4 2 WSW 0,0
15.09.2020 11:00:00 19,3 9,8 3 2 S 0,0
15.09.2020 10:00:00 12,6 8,5 3 2 S 0,0
15.09.2020 09:00:00 10,7 7,2 3 1 SW 0,0
15.09.2020 08:00:00 12,2 6,2 6 3 E 0,0
15.09.2020 07:00:00 10,7 6,4 4 2 E 0,0
15.09.2020 06:00:00 12,8 6,6 10 5 E 0,0
15.09.2020 05:00:00 12,6 7,3 7 4 ENE 0,0
15.09.2020 04:00:00 13,7 7,7 11 6 E 0,0
15.09.2020 03:00:00 14,1 8,1 9 5 E 0,0
15.09.2020 02:00:00 15,4 8,6 16 9 ENE 0,0
15.09.2020 01:00:00 16,2 9,4 13 7 ENE 0,0
15.09.2020 00:00:00 16,7 10,1 11 6 ENE 0,0
14.09.2020 23:00:00 17,9 10,5 14 8 NE 0,0
14.09.2020 22:00:00 18,7 10,5 15 8 ENE 0,0
14.09.2020 21:00:00 19,3 10,8 13 7 E 0,0
14.09.2020 20:00:00 20,3 10,1 14 8 ENE 0,0
14.09.2020 19:00:00 21,7 10,2 16 9 E 0,0
14.09.2020 18:00:00 23,6 9,6 18 10 E 0,0

tt = Température de l'air
td = dewpoint
ff = Vitesse du vent
dd = Direction du vent
rr = Quantités de précipitations

stations d'obs. à proximité